createdAt,value
2018-10-06T00:08:27.102Z,7.68
2018-10-06T00:19:28.811Z,7.72
2018-10-06T00:30:26.083Z,7.60
2018-10-06T00:41:27.918Z,7.64
2018-10-06T00:52:29.656Z,7.59
2018-10-06T01:03:32.230Z,7.37
2018-10-06T01:14:32.017Z,7.27
2018-10-06T01:25:29.676Z,7.49
2018-10-06T01:36:31.235Z,7.62
2018-10-06T01:47:31.343Z,7.44
2018-10-06T01:58:33.820Z,7.38
2018-10-06T02:09:35.618Z,7.38
2018-10-06T02:20:36.961Z,7.35
2018-10-06T02:31:38.925Z,7.35
2018-10-06T02:42:40.698Z,7.20
2018-10-06T02:53:41.893Z,7.16
2018-10-06T03:04:43.629Z,6.94
2018-10-06T03:15:45.251Z,7.16
2018-10-06T03:26:47.368Z,7.09
2018-10-06T03:37:47.547Z,7.11
2018-10-06T03:48:48.544Z,7.03
2018-10-06T03:59:47.144Z,7.16
2018-10-06T04:10:48.504Z,7.39
2018-10-06T04:21:49.778Z,7.30
2018-10-06T04:32:50.503Z,7.19
2018-10-06T04:43:51.495Z,7.12
2018-10-06T04:54:51.691Z,7.09
2018-10-06T05:05:52.827Z,6.93
2018-10-06T05:16:53.130Z,6.86
2018-10-06T05:27:55.743Z,7.03
2018-10-06T05:38:57.842Z,7.11
2018-10-06T05:49:57.114Z,7.48
2018-10-06T06:00:59.753Z,7.68
2018-10-06T06:12:01.051Z,7.96
2018-10-06T06:23:03.939Z,8.51
2018-10-06T06:34:03.495Z,9.10
2018-10-06T06:45:06.696Z,9.46
2018-10-06T06:55:53.406Z,9.90
2018-10-06T07:06:54.763Z,10.28
2018-10-06T07:17:56.736Z,10.77
2018-10-06T07:28:56.209Z,11.34
2018-10-06T07:39:57.945Z,12.05
2018-10-06T07:50:58.222Z,12.56
2018-10-06T08:02:01.025Z,13.06
2018-10-06T08:12:56.906Z,13.41
2018-10-06T08:23:55.509Z,14.13
2018-10-06T08:34:57.522Z,14.74
2018-10-06T08:45:54.330Z,15.06
2018-10-06T08:56:57.091Z,15.63
2018-10-06T09:07:55.827Z,16.27
2018-10-06T09:18:51.972Z,16.59
2018-10-06T09:29:44.977Z,17.33
2018-10-06T09:40:43.812Z,17.48
2018-10-06T09:51:43.834Z,17.66
2018-10-06T10:02:34.657Z,18.47
2018-10-06T10:13:35.541Z,19.02
2018-10-06T10:24:35.082Z,19.73
2018-10-06T10:35:34.273Z,19.95
2018-10-06T10:46:25.708Z,20.23
2018-10-06T10:57:26.769Z,21.35
2018-10-06T11:08:24.624Z,20.83
2018-10-06T11:19:23.384Z,19.68
2018-10-06T11:30:23.880Z,21.04
2018-10-06T11:40:57.974Z,21.57
2018-10-06T11:51:59.700Z,22.41
2018-10-06T12:03:01.212Z,21.51
2018-10-06T12:13:58.598Z,22.08
2018-10-06T12:24:58.422Z,22.16
2018-10-06T12:35:59.461Z,21.21
2018-10-06T12:46:55.349Z,21.39
2018-10-06T12:57:56.040Z,21.45
2018-10-06T13:08:56.788Z,22.24
2018-10-06T13:19:59.186Z,23.22
2018-10-06T13:30:59.858Z,24.42
2018-10-06T13:42:01.914Z,23.83
2018-10-06T13:53:01.054Z,22.37
2018-10-06T14:03:59.647Z,22.30
2018-10-06T14:14:58.741Z,21.41
2018-10-06T14:25:56.487Z,21.39
2018-10-06T14:36:55.393Z,21.29
2018-10-06T14:47:54.436Z,21.31
2018-10-06T14:58:42.623Z,20.82
2018-10-06T15:09:29.724Z,20.05
2018-10-06T15:20:17.137Z,19.60
2018-10-06T15:31:16.695Z,19.35
2018-10-06T15:42:11.502Z,18.89
2018-10-06T15:53:06.198Z,18.57
2018-10-06T16:03:55.197Z,18.27
2018-10-06T16:14:50.095Z,17.82
2018-10-06T16:25:47.704Z,17.77
2018-10-06T16:36:44.742Z,17.57
2018-10-06T16:47:36.909Z,17.02
2018-10-06T16:58:35.944Z,16.77
2018-10-06T17:09:33.526Z,16.59
2018-10-06T17:20:16.094Z,16.20
2018-10-06T17:31:17.317Z,15.85
2018-10-06T17:42:19.252Z,15.81
2018-10-06T17:53:17.596Z,15.83
2018-10-06T18:04:19.297Z,15.91
2018-10-06T18:15:20.717Z,15.86
2018-10-06T18:26:21.002Z,15.70
2018-10-06T18:37:06.899Z,15.43
2018-10-06T18:48:04.938Z,15.35
2018-10-06T18:59:03.886Z,15.26
2018-10-06T19:09:56.501Z,15.23
2018-10-06T19:20:51.176Z,15.24
2018-10-06T19:31:45.258Z,15.21
2018-10-06T19:42:27.784Z,15.30
2018-10-06T19:53:18.580Z,15.28
2018-10-06T20:04:17.155Z,15.31
2018-10-06T20:15:09.317Z,15.28
2018-10-06T20:26:04.931Z,15.28
2018-10-06T20:37:04.919Z,15.23
2018-10-06T20:47:53.618Z,15.21
2018-10-06T20:58:52.060Z,15.10
2018-10-06T21:09:46.159Z,15.06
2018-10-06T21:20:45.706Z,14.94
2018-10-06T21:31:45.054Z,14.74
2018-10-06T21:42:45.434Z,14.57
2018-10-06T21:53:44.862Z,14.49
2018-10-06T22:04:45.039Z,14.41
2018-10-06T22:15:46.243Z,14.57
2018-10-06T22:26:46.940Z,14.50
2018-10-06T22:37:42.687Z,14.44
2018-10-06T22:48:43.504Z,14.36
2018-10-06T22:59:23.283Z,14.17
2018-10-06T23:10:23.039Z,14.13
2018-10-06T23:21:24.391Z,14.02
2018-10-06T23:32:26.262Z,14.16
2018-10-06T23:43:28.364Z,14.14
2018-10-06T23:54:28.440Z,14.24
